Time;durP1;ratioP1;P1;durP2;ratioP2;P2;SDS_P1;SDS_P2;PMS_P1;PMS_P2;Temp;Humidity;BMP_temperature;BMP_pressure;BME280_temperature;BME280_humidity;BME280_pressure;Samples;Min_cycle;Max_cycle;Signal;HPM_P1;HPM_P2
2022/11/05 00:16:47;;;;;;;31.43;19.60;;;;;;;6.46;100.00;96094.22;10355777;28;20279;-75
2022/11/05 00:27:07;;;;;;;43.27;21.67;;;;;;;6.42;100.00;96097.13;10370479;28;20513;-75
2022/11/05 00:32:07;;;;;;;38.37;20.17;;;;;;;6.47;100.00;96094.09;10336248;28;20196;-75
2022/11/05 00:37:08;;;;;;;44.60;23.17;;;;;;;6.41;100.00;96092.88;10370128;28;20232;-75
2022/11/05 00:52:55;;;;;;;32.40;20.13;;;;;;;6.49;100.00;96125.97;10369338;28;20185;-75
2022/11/05 00:57:56;;;;;;;26.00;16.77;;;;;;;6.50;100.00;96127.63;10370042;28;20228;-75
2022/11/05 01:03:01;;;;;;;27.53;17.17;;;;;;;6.55;100.00;96129.78;10368353;28;20315;-75
2022/11/05 01:08:02;;;;;;;25.83;15.63;;;;;;;6.51;100.00;96131.03;10369417;28;20703;-75
2022/11/05 01:13:02;;;;;;;27.57;15.37;;;;;;;6.51;100.00;96136.22;10368557;28;20193;-75
2022/11/05 01:18:03;;;;;;;19.47;14.30;;;;;;;6.51;100.00;96136.22;10368616;28;20684;-75
2022/11/05 01:23:04;;;;;;;23.47;15.10;;;;;;;6.56;100.00;96139.25;10368526;28;20214;-75
2022/11/05 01:28:05;;;;;;;21.00;12.67;;;;;;;6.57;100.00;96151.25;10367205;28;20193;-75
2022/11/05 01:33:23;;;;;;;22.17;13.80;;;;;;;6.50;100.00;96150.22;10366947;28;20240;-75
2022/11/05 01:38:23;;;;;;;17.27;11.67;;;;;;;6.50;100.00;96165.84;10349077;28;20268;-75
2022/11/05 01:43:24;;;;;;;17.87;11.17;;;;;;;6.54;100.00;96177.56;10367986;28;20671;-75
2022/11/05 01:48:30;;;;;;;16.47;10.73;;;;;;;6.45;100.00;96186.25;10367111;28;20189;-75
2022/11/05 01:53:38;;;;;;;19.10;11.57;;;;;;;6.43;100.00;96195.03;10367897;28;20185;-75
2022/11/05 01:58:49;;;;;;;16.33;10.87;;;;;;;6.41;100.00;96201.34;10367307;28;20225;-75
2022/11/05 02:03:52;;;;;;;18.93;12.27;;;;;;;6.50;100.00;96200.47;10366327;28;20639;-75
2022/11/05 02:09:06;;;;;;;19.47;12.00;;;;;;;6.47;100.00;96186.94;10366207;28;20576;-75
2022/11/05 02:14:06;;;;;;;18.80;11.73;;;;;;;6.39;100.00;96198.88;10349295;28;20196;-75
2022/11/05 02:19:51;;;;;;;15.60;11.17;;;;;;;6.37;100.00;96202.56;10366363;28;20193;-75
2022/11/05 02:24:54;;;;;;;14.70;10.73;;;;;;;6.43;100.00;96215.00;10348782;28;20189;-76
2022/11/05 02:30:04;;;;;;;16.67;10.90;;;;;;;6.40;100.00;96217.91;10366722;28;20198;-75
2022/11/05 02:35:22;;;;;;;13.00;8.60;;;;;;;6.40;100.00;96212.69;10348062;28;20535;-75
2022/11/05 02:40:29;;;;;;;12.57;8.03;;;;;;;6.45;100.00;96222.69;10366950;28;20263;-74
2022/11/05 02:45:50;;;;;;;15.53;9.47;;;;;;;6.48;100.00;96230.19;10372970;28;20235;-75
2022/11/05 02:50:59;;;;;;;16.20;10.60;;;;;;;6.39;100.00;96230.09;10374501;28;20182;-75
2022/11/05 02:56:04;;;;;;;16.33;11.40;;;;;;;6.41;100.00;96232.56;10356830;28;20532;-75
2022/11/05 03:01:05;;;;;;;22.77;11.10;;;;;;;6.37;100.00;96237.25;10356165;28;20224;-75
2022/11/05 03:06:32;;;;;;;16.20;11.80;;;;;;;6.36;100.00;96235.59;10373844;28;20205;-75
2022/11/05 03:11:46;;;;;;;20.70;11.97;;;;;;;6.35;100.00;96252.16;10356037;28;20240;-75
2022/11/05 03:16:56;;;;;;;19.73;11.80;;;;;;;6.34;100.00;96249.69;10338986;28;20197;-75
2022/11/05 03:22:02;;;;;;;16.83;11.50;;;;;;;6.35;100.00;96249.53;10356061;28;20224;-75
2022/11/05 03:27:14;;;;;;;16.83;11.97;;;;;;;6.43;100.00;96262.69;10372804;28;20224;-75
2022/11/05 03:32:16;;;;;;;16.67;11.83;;;;;;;6.37;100.00;96259.81;10354848;28;20185;-76
2022/11/05 03:37:18;;;;;;;15.77;11.47;;;;;;;6.37;100.00;96252.00;10372010;28;20607;-75
2022/11/05 03:42:24;;;;;;;17.97;10.73;;;;;;;6.39;100.00;96265.72;10372238;28;20709;-75
2022/11/05 03:47:37;;;;;;;16.17;11.37;;;;;;;6.35;100.00;96257.34;10354686;28;20208;-75
2022/11/05 03:52:51;;;;;;;17.47;11.20;;;;;;;6.40;100.00;96264.72;10371661;28;20194;-75
2022/11/05 03:57:54;;;;;;;19.03;12.90;;;;;;;6.41;100.00;96280.19;10371631;28;20292;-75
2022/11/05 04:02:54;;;;;;;21.83;13.67;;;;;;;6.54;100.00;96284.28;10368605;28;20315;-75
2022/11/05 04:13:25;;;;;;;24.57;14.40;;;;;;;6.41;100.00;96303.63;10363439;28;20190;-75
2022/11/05 04:18:26;;;;;;;26.40;15.30;;;;;;;6.37;100.00;96314.44;10363115;28;20650;-75
2022/11/05 04:34:04;;;;;;;47.40;23.53;;;;;;;6.54;100.00;96346.72;10362400;28;20193;-75
2022/11/05 04:39:04;;;;;;;49.67;25.07;;;;;;;6.47;100.00;96353.47;10363587;28;20263;-75
2022/11/05 04:44:05;;;;;;;48.57;25.53;;;;;;;6.49;100.00;96349.75;10363584;28;20198;-75
2022/11/05 04:49:05;;;;;;;54.67;26.30;;;;;;;6.45;100.00;96348.41;10345048;28;20201;-75
2022/11/05 04:54:05;;;;;;;48.80;27.20;;;;;;;6.43;100.00;96348.56;10363281;28;20291;-75
2022/11/05 04:59:06;;;;;;;57.07;28.03;;;;;;;6.42;100.00;96365.09;10362264;28;20212;-75
2022/11/05 05:04:06;;;;;;;56.57;28.77;;;;;;;6.44;100.00;96375.38;10367861;28;20198;-75
2022/11/05 05:09:06;;;;;;;61.40;28.63;;;;;;;6.41;100.00;96383.47;10369178;28;20185;-75
2022/11/05 05:14:07;;;;;;;56.93;29.27;;;;;;;6.39;100.00;96393.19;10369458;28;20283;-75
2022/11/05 05:19:08;;;;;;;58.97;28.77;;;;;;;6.35;100.00;96400.44;10351194;28;20737;-75
2022/11/05 05:24:14;;;;;;;58.93;27.63;;;;;;;6.39;100.00;96394.00;10368502;28;20650;-75
2022/11/05 05:29:15;;;;;;;55.93;27.10;;;;;;;6.36;100.00;96406.47;10368986;28;20195;-75
2022/11/05 05:34:15;;;;;;;51.90;25.20;;;;;;;6.41;100.00;96420.69;10368626;28;20186;-75
2022/11/05 05:39:16;;;;;;;55.97;26.43;;;;;;;6.35;100.00;96426.44;10367678;28;20237;-75
2022/11/05 05:44:16;;;;;;;55.40;26.07;;;;;;;6.31;100.00;96421.66;10368175;28;20195;-75
2022/11/05 05:49:16;;;;;;;51.27;23.97;;;;;;;6.34;100.00;96424.84;10367048;28;20197;-75
2022/11/05 05:54:17;;;;;;;50.17;25.13;;;;;;;6.30;100.00;96435.66;10367721;28;20554;-75
2022/11/05 05:59:17;;;;;;;50.70;25.37;;;;;;;6.24;100.00;96435.22;10367296;28;20284;-75
2022/11/05 06:04:18;;;;;;;51.53;24.40;;;;;;;6.24;100.00;96440.41;10367597;28;20205;-75
2022/11/05 06:09:18;;;;;;;53.23;23.97;;;;;;;6.20;100.00;96446.88;10366217;28;20196;-75
2022/11/05 06:14:18;;;;;;;50.77;24.93;;;;;;;6.24;100.00;96444.81;10367347;28;20201;-75
2022/11/05 06:19:19;;;;;;;48.30;23.77;;;;;;;6.25;100.00;96462.88;10379224;28;20532;-75
2022/11/05 06:24:19;;;;;;;47.10;24.67;;;;;;;6.25;100.00;96485.47;10380529;28;20195;-75
2022/11/05 06:29:20;;;;;;;49.03;23.40;;;;;;;6.30;100.00;96498.09;10380631;28;20195;-75
2022/11/05 06:34:20;;;;;;;57.77;25.47;;;;;;;6.33;100.00;96503.00;10380825;28;20196;-75
2022/11/05 06:39:21;;;;;;;48.60;23.67;;;;;;;6.41;100.00;96509.16;10379890;28;20309;-75
2022/11/05 06:44:21;;;;;;;49.20;22.33;;;;;;;6.40;100.00;96509.31;10380570;28;20205;-75
2022/11/05 06:49:23;;;;;;;48.93;22.30;;;;;;;6.38;100.00;96526.84;10366969;28;20185;-75
2022/11/05 06:54:23;;;;;;;52.70;21.50;;;;;;;6.46;100.00;96533.97;10354386;28;20189;-75
2022/11/05 06:59:24;;;;;;;49.07;21.33;;;;;;;6.59;100.00;96531.94;10358102;28;20536;-75
2022/11/05 07:04:24;;;;;;;39.33;19.13;;;;;;;6.48;100.00;96545.91;10362166;28;20205;-75
2022/11/05 07:09:25;;;;;;;44.40;20.93;;;;;;;6.56;100.00;96538.22;10379060;28;20193;-75
2022/11/05 07:14:25;;;;;;;45.00;19.60;;;;;;;6.66;100.00;96555.63;10375690;28;20185;-76
2022/11/05 07:19:26;;;;;;;42.07;20.60;;;;;;;6.67;100.00;96552.06;10373817;28;20191;-76
2022/11/05 07:24:26;;;;;;;48.97;21.03;;;;;;;6.80;100.00;96552.63;10380135;28;20224;-76
2022/11/05 07:29:26;;;;;;;39.57;21.13;;;;;;;6.84;100.00;96561.81;10372286;28;20255;-75
2022/11/05 07:34:27;;;;;;;42.03;20.47;;;;;;;6.71;100.00;96561.28;10368822;28;20199;-75
2022/11/05 07:39:27;;;;;;;39.87;19.37;;;;;;;6.87;100.00;96560.72;10372767;28;20248;-75
2022/11/05 07:44:27;;;;;;;42.43;20.47;;;;;;;6.97;100.00;96567.56;10372664;28;20192;-75
2022/11/05 07:49:28;;;;;;;41.40;20.37;;;;;;;6.96;100.00;96571.13;10371599;28;20677;-76
2022/11/05 07:54:28;;;;;;;34.37;18.97;;;;;;;7.08;100.00;96571.81;10370662;28;20252;-77
2022/11/05 07:59:31;;;;;;;43.27;19.30;;;;;;;7.08;100.00;96571.81;10363408;28;20585;-77
2022/11/05 08:04:31;;;;;;;41.07;19.53;;;;;;;7.09;100.00;96570.00;10368570;28;20199;-78
2022/11/05 08:09:32;;;;;;;31.43;20.10;;;;;;;7.42;100.00;96575.75;10368440;28;20641;-78
2022/11/05 08:14:32;;;;;;;44.80;21.80;;;;;;;7.45;100.00;96573.66;10352491;28;20189;-77
2022/11/05 08:19:33;;;;;;;39.73;20.83;;;;;;;7.20;100.00;96569.88;10369453;28;20220;-77
2022/11/05 08:24:33;;;;;;;34.40;19.23;;;;;;;7.39;100.00;96571.63;10370073;28;20692;-76
2022/11/05 08:29:33;;;;;;;34.33;19.27;;;;;;;7.43;100.00;96572.19;10370495;28;20193;-75
2022/11/05 08:34:34;;;;;;;35.10;18.20;;;;;;;7.44;100.00;96574.66;10370130;28;20189;-75
2022/11/05 08:39:34;;;;;;;28.27;17.57;;;;;;;7.45;100.00;96581.50;10369989;28;20336;-76
2022/11/05 08:44:35;;;;;;;30.27;16.47;;;;;;;7.65;100.00;96591.88;10370323;28;20211;-75
2022/11/05 08:49:35;;;;;;;26.43;14.80;;;;;;;7.73;100.00;96592.00;10367999;28;20189;-76
2022/11/05 08:54:35;;;;;;;22.30;12.07;;;;;;;7.65;100.00;96584.88;10366109;28;20219;-77
2022/11/05 08:59:36;;;;;;;27.13;11.80;;;;;;;7.93;100.00;96600.59;10350120;28;20217;-76
2022/11/05 09:04:36;;;;;;;25.53;10.93;;;;;;;7.81;100.00;96586.91;10328608;28;20278;-79
2022/11/05 09:09:36;;;;;;;24.17;11.37;;;;;;;7.69;100.00;96582.81;10328779;28;20197;-78
2022/11/05 09:14:37;;;;;;;29.80;12.07;;;;;;;8.29;100.00;96584.25;10328458;28;20226;-76
2022/11/05 09:19:37;;;;;;;18.97;9.57;;;;;;;8.55;100.00;96582.59;10328052;28;20221;-76
2022/11/05 09:24:38;;;;;;;16.43;9.73;;;;;;;9.13;100.00;96582.31;10397576;28;20204;-76
2022/11/05 09:29:40;;;;;;;16.73;10.93;;;;;;;8.81;100.00;96583.69;10371555;28;20197;-77
2022/11/05 09:34:43;;;;;;;17.67;9.20;;;;;;;8.49;100.00;96590.22;10372698;28;20276;-76
2022/11/05 09:39:43;;;;;;;18.30;8.50;;;;;;;9.53;100.00;96591.47;10325885;28;20360;-76
2022/11/05 09:44:48;;;;;;;20.07;7.30;;;;;;;9.08;100.00;96582.75;10362424;28;20191;-78
2022/11/05 09:49:51;;;;;;;19.70;7.63;;;;;;;9.04;100.00;96584.06;10348522;28;20193;-78
2022/11/05 09:54:53;;;;;;;22.10;8.70;;;;;;;9.17;100.00;96588.88;10343196;28;20193;-77
2022/11/05 09:59:56;;;;;;;20.60;8.93;;;;;;;9.14;100.00;96602.25;10319145;28;20210;-77
2022/11/05 10:04:59;;;;;;;22.90;9.47;;;;;;;9.00;100.00;96591.34;10374022;28;20264;-77
2022/11/05 10:10:02;;;;;;;22.17;9.37;;;;;;;9.52;100.00;96590.63;10358863;28;20192;-77
2022/11/05 10:15:16;;;;;;;17.17;6.97;;;;;;;9.99;100.00;96613.81;10349737;28;20200;-77
2022/11/05 10:20:23;;;;;;;13.80;6.23;;;;;;;10.48;100.00;96592.31;10366399;28;20640;-76
2022/11/05 10:25:28;;;;;;;15.07;5.43;;;;;;;10.14;100.00;96610.63;10345958;28;20288;-77
2022/11/05 10:30:28;;;;;;;12.10;6.67;;;;;;;9.45;100.00;96610.53;10363203;28;20201;-77
2022/11/05 10:35:32;;;;;;;15.97;6.87;;;;;;;9.32;100.00;96637.03;10346420;28;20834;-77
2022/11/05 10:40:44;;;;;;;14.90;5.00;;;;;;;10.87;100.00;96609.25;10363870;28;20225;-77
2022/11/05 10:45:58;;;;;;;11.15;4.22;;;;;;;13.47;88.93;96526.47;10364965;28;20224;-77
2022/11/05 10:50:58;;;;;;;12.27;4.13;;;;;;;13.03;84.48;96514.78;10364634;28;20196;-77
2022/11/05 10:55:59;;;;;;;10.35;4.25;;;;;;;13.96;82.27;96511.97;10348828;28;20204;-76
2022/11/05 11:01:06;;;;;;;8.23;3.90;;;;;;;13.94;77.94;96485.81;10347864;28;20314;-75
2022/11/05 11:06:28;;;;;;;12.75;3.90;;;;;;;13.16;84.55;96553.66;10371260;28;20267;-77
2022/11/05 11:11:28;;;;;;;16.85;4.30;;;;;;;12.12;84.68;96552.13;10374211;28;20227;-76
2022/11/05 11:16:34;;;;;;;9.82;3.20;;;;;;;11.78;87.46;96582.06;10373468;28;20243;-75
2022/11/05 11:21:36;;;;;;;13.13;3.83;;;;;;;11.88;90.24;96600.25;10356614;28;20232;-75
2022/11/05 11:26:38;;;;;;;5.85;2.85;;;;;;;11.92;87.98;96577.13;10372841;28;20709;-76
2022/11/05 11:31:39;;;;;;;6.93;2.50;;;;;;;11.29;87.14;96581.31;10356153;28;20189;-75
2022/11/05 11:36:45;;;;;;;11.15;3.22;;;;;;;10.48;92.58;96615.88;10355026;28;20240;-76
2022/11/05 11:41:51;;;;;;;7.70;3.13;;;;;;;10.37;95.21;96628.41;10350896;28;20579;-77
2022/11/05 11:46:54;;;;;;;16.83;3.40;;;;;;;10.15;95.39;96625.34;10369518;28;20220;-76
2022/11/05 11:52:00;;;;;;;16.67;3.30;;;;;;;9.63;98.09;96640.09;10378483;28;20212;-76
2022/11/05 11:57:00;;;;;;;12.60;2.97;;;;;;;9.48;100.00;96644.22;10348489;28;20654;-76
2022/11/05 12:02:19;;;;;;;16.33;3.30;;;;;;;9.50;100.00;96631.81;10372143;28;20213;-75
2022/11/05 12:07:22;;;;;;;10.83;3.00;;;;;;;9.95;100.00;96635.22;10371521;28;20193;-76
2022/11/05 12:12:48;;;;;;;10.33;2.90;;;;;;;10.05;100.00;96638.56;10354014;28;20193;-76
2022/11/05 12:17:49;;;;;;;12.03;3.47;;;;;;;10.20;98.52;96606.56;10370994;28;20595;-75
2022/11/05 12:23:29;;;;;;;15.73;3.70;;;;;;;10.08;100.00;96624.34;10353265;28;20588;-75
2022/11/05 12:28:44;;;;;;;16.88;5.38;;;;;;;10.17;100.00;96637.31;10369721;28;20619;-75
2022/11/05 12:34:03;;;;;;;17.43;3.77;;;;;;;10.38;99.51;96628.25;10370461;28;20210;-76
2022/11/05 12:39:41;;;;;;;13.32;2.88;;;;;;;11.95;93.50;96596.00;10367691;28;20350;-76
2022/11/05 12:44:49;;;;;;;16.88;3.10;;;;;;;13.58;82.40;96533.91;10370721;28;20211;-75
2022/11/05 12:50:00;;;;;;;8.35;2.55;;;;;;;14.85;73.81;96487.22;10352690;28;20200;-75
2022/11/05 12:55:27;;;;;;;5.55;2.00;;;;;;;15.46;68.06;96444.47;10336113;28;20650;-76
2022/11/05 13:00:29;;;;;;;11.13;1.92;;;;;;;15.93;65.66;96442.91;10366024;28;20700;-75
2022/11/05 13:05:39;;;;;;;12.50;2.92;;;;;;;14.26;66.09;96434.50;10351797;28;20189;-75
2022/11/05 13:10:48;;;;;;;11.32;2.67;;;;;;;15.07;67.45;96474.81;10352484;28;20181;-75
2022/11/05 13:15:53;;;;;;;15.40;5.57;;;;;;;14.64;67.00;96467.78;10335003;28;20247;-75
2022/11/05 13:20:53;;;;;;;13.95;2.42;;;;;;;13.64;70.88;96527.13;10350922;28;20225;-75
2022/11/05 13:25:58;;;;;;;10.57;2.47;;;;;;;12.56;77.33;96598.09;10350803;28;20185;-75
2022/11/05 13:31:00;;;;;;;14.57;2.83;;;;;;;12.50;79.08;96601.41;10368248;28;20677;-75
2022/11/05 13:41:58;;;;;;;12.90;2.67;;;;;;;11.63;84.04;96630.16;10367885;28;20225;-75
2022/11/05 13:47:28;;;;;;;10.38;3.55;;;;;;;11.84;83.48;96622.56;10350769;28;20193;-75
2022/11/05 13:52:50;;;;;;;13.85;2.50;;;;;;;11.63;83.04;96620.47;10349975;28;20582;-75
2022/11/05 13:58:00;;;;;;;10.82;2.10;;;;;;;11.11;83.57;96623.41;10350540;28;20661;-75
2022/11/05 14:03:17;;;;;;;7.55;2.45;;;;;;;11.28;84.39;96639.97;10350217;28;20219;-75
2022/11/05 14:08:19;;;;;;;7.63;1.95;;;;;;;10.91;86.35;96663.00;10350029;28;20189;-75
2022/11/05 14:13:37;;;;;;;6.90;1.80;;;;;;;10.90;86.76;96661.34;10367565;28;20277;-76
2022/11/05 14:18:39;;;;;;;14.10;2.88;;;;;;;10.43;93.55;96716.81;10349780;28;20205;-75
2022/11/05 14:23:48;;;;;;;11.50;2.60;;;;;;;9.77;100.00;96711.13;10349096;28;20228;-75
2022/11/05 14:28:49;;;;;;;15.37;3.33;;;;;;;9.42;100.00;96729.31;10347244;28;20186;-76
2022/11/05 14:34:03;;;;;;;22.60;4.70;;;;;;;9.90;100.00;96726.44;10366199;28;20677;-75
2022/11/05 14:39:17;;;;;;;13.90;4.10;;;;;;;9.83;100.00;96741.91;10371715;28;20268;-75
2022/11/05 14:44:18;;;;;;;10.80;3.27;;;;;;;9.16;100.00;96744.06;10374524;28;20604;-75
2022/11/05 14:49:51;;;;;;;13.50;5.60;;;;;;;8.16;100.00;96741.97;10375017;28;20581;-76
2022/11/05 14:54:56;;;;;;;8.50;2.80;;;;;;;7.31;100.00;96746.09;10356931;28;20193;-76
2022/11/05 14:59:59;;;;;;;7.83;3.40;;;;;;;7.03;100.00;96760.69;10356784;28;20209;-74
2022/11/05 15:05:34;;;;;;;9.83;2.60;;;;;;;7.07;100.00;96772.50;10355124;28;20189;-75
2022/11/05 15:10:36;;;;;;;5.83;2.60;;;;;;;6.90;100.00;96766.97;10354812;28;20193;-75
2022/11/05 15:15:42;;;;;;;7.13;3.20;;;;;;;6.74;100.00;96771.88;10371543;28;20197;-76
2022/11/05 15:20:47;;;;;;;10.63;3.83;;;;;;;6.57;100.00;96774.13;10348928;28;20256;-75
2022/11/05 15:26:03;;;;;;;7.70;3.83;;;;;;;6.43;100.00;96788.28;10350243;28;20201;-75
2022/11/05 15:31:10;;;;;;;25.23;11.37;;;;;;;6.03;100.00;96785.56;10365396;28;20262;-76
2022/11/05 15:36:26;;;;;;;17.73;11.80;;;;;;;5.94;100.00;96797.53;10361984;28;20454;-76
2022/11/05 15:41:32;;;;;;;10.67;5.00;;;;;;;5.74;100.00;96809.53;10364167;28;20279;-76
2022/11/05 15:46:32;;;;;;;21.50;13.23;;;;;;;5.26;100.00;96807.31;10364359;28;20280;-76
2022/11/05 15:51:34;;;;;;;20.27;16.13;;;;;;;5.20;100.00;96813.81;10363119;28;20190;-74
2022/11/05 15:56:44;;;;;;;16.23;9.60;;;;;;;4.85;100.00;96824.34;10364454;28;20185;-74
2022/11/05 16:01:47;;;;;;;23.70;15.60;;;;;;;4.66;100.00;96824.94;10345802;28;20226;-74
2022/11/05 16:06:51;;;;;;;22.37;13.67;;;;;;;4.44;100.00;96836.91;10363608;28;20291;-74
2022/11/05 16:12:11;;;;;;;32.07;20.30;;;;;;;4.52;100.00;96863.13;10346940;28;20566;-74
2022/11/05 16:17:23;;;;;;;31.57;15.23;;;;;;;4.45;100.00;96870.50;10362434;28;20654;-74
2022/11/05 16:22:23;;;;;;;24.00;11.83;;;;;;;4.46;100.00;96866.19;10363607;28;20581;-74
2022/11/05 16:27:24;;;;;;;23.60;14.73;;;;;;;4.51;100.00;96868.41;10344936;28;20193;-74
2022/11/05 16:32:28;;;;;;;25.47;11.57;;;;;;;4.36;100.00;96876.38;10362659;28;20185;-74
2022/11/05 16:37:38;;;;;;;20.83;13.27;;;;;;;4.16;100.00;96875.28;10369402;28;20241;-74
2022/11/05 16:42:39;;;;;;;17.73;10.77;;;;;;;4.23;100.00;96881.66;10351083;28;20213;-74
2022/11/05 16:47:41;;;;;;;37.33;23.30;;;;;;;4.08;100.00;96888.78;10369994;28;20189;-73
2022/11/05 16:52:43;;;;;;;20.43;15.00;;;;;;;4.06;100.00;96889.88;10368366;28;20593;-74
2022/11/05 16:57:46;;;;;;;53.00;36.70;;;;;;;3.88;100.00;96892.81;10352774;28;20181;-74
2022/11/05 17:02:47;;;;;;;26.90;17.20;;;;;;;3.82;100.00;96898.44;10384929;28;20221;-74
2022/11/05 17:07:47;;;;;;;26.03;14.53;;;;;;;3.78;100.00;96899.59;10370630;28;20583;-74
2022/11/05 17:12:48;;;;;;;21.47;12.00;;;;;;;3.70;100.00;96907.91;10370072;28;20301;-74
2022/11/05 17:17:50;;;;;;;24.00;13.13;;;;;;;3.64;100.00;96917.91;10350885;28;20193;-74
2022/11/05 17:22:50;;;;;;;21.43;11.10;;;;;;;3.63;100.00;96911.91;10369232;28;20701;-74
2022/11/05 17:27:51;;;;;;;19.93;10.30;;;;;;;3.60;100.00;96906.09;10368557;28;20189;-74
2022/11/05 17:32:51;;;;;;;17.93;10.27;;;;;;;3.45;100.00;96921.78;10368704;28;20224;-74
2022/11/05 17:37:52;;;;;;;20.47;10.30;;;;;;;3.39;100.00;96923.03;10367858;28;20709;-73
2022/11/05 17:42:52;;;;;;;16.90;10.30;;;;;;;3.37;100.00;96937.03;10368498;28;20287;-74
2022/11/05 17:47:53;;;;;;;16.00;8.73;;;;;;;3.26;100.00;96947.28;10367935;28;20684;-74
2022/11/05 17:52:53;;;;;;;19.73;9.83;;;;;;;3.22;100.00;96947.50;10368220;28;20215;-74
2022/11/05 17:57:54;;;;;;;18.87;8.93;;;;;;;3.15;100.00;96950.59;10367975;28;20181;-74
2022/11/05 18:02:54;;;;;;;20.17;9.13;;;;;;;3.07;100.00;96950.31;10367698;28;20222;-74
2022/11/05 18:07:55;;;;;;;13.00;7.80;;;;;;;3.10;100.00;96948.34;10367534;28;20205;-74
2022/11/05 18:12:55;;;;;;;15.97;7.67;;;;;;;3.09;100.00;96962.19;10366348;28;20185;-74
2022/11/05 18:17:56;;;;;;;17.73;9.37;;;;;;;3.07;100.00;96960.66;10367148;28;20193;-74
2022/11/05 18:22:56;;;;;;;13.43;8.00;;;;;;;3.04;100.00;96966.88;10367373;28;20785;-74
2022/11/05 18:27:56;;;;;;;16.13;8.93;;;;;;;2.97;100.00;96968.19;10366561;28;20681;-75
2022/11/05 18:32:57;;;;;;;18.20;8.97;;;;;;;2.94;100.00;96978.75;10367530;28;20606;-75
2022/11/05 18:37:57;;;;;;;17.83;7.87;;;;;;;2.88;100.00;96977.44;10366302;28;20240;-75
2022/11/05 18:42:58;;;;;;;21.43;8.33;;;;;;;2.81;100.00;96971.00;10366996;28;20213;-75
2022/11/05 18:48:02;;;;;;;17.60;8.67;;;;;;;2.87;100.00;96978.34;10366523;28;20235;-74
2022/11/05 18:53:02;;;;;;;15.33;8.57;;;;;;;2.81;100.00;96987.34;10366935;28;20664;-75
2022/11/05 18:58:02;;;;;;;13.50;6.73;;;;;;;2.78;100.00;96991.91;10366116;28;20196;-75
2022/11/05 19:03:03;;;;;;;16.23;7.83;;;;;;;2.65;100.00;96986.72;10366218;28;20209;-75
2022/11/05 19:08:03;;;;;;;17.17;9.97;;;;;;;2.66;100.00;96986.59;10348988;28;20192;-75
2022/11/05 19:13:04;;;;;;;19.70;8.50;;;;;;;2.60;100.00;96981.81;10365952;28;20650;-74
2022/11/05 19:18:04;;;;;;;18.13;7.97;;;;;;;2.56;100.00;96980.38;10363026;28;20193;-75
2022/11/05 19:23:05;;;;;;;15.80;7.43;;;;;;;2.54;100.00;96969.28;10364775;28;20348;-74
2022/11/05 19:28:05;;;;;;;15.57;7.47;;;;;;;2.52;100.00;96970.31;10372920;28;20193;-75
2022/11/05 19:33:05;;;;;;;13.83;6.40;;;;;;;2.43;100.00;96979.50;10373505;28;20189;-75
2022/11/05 19:38:06;;;;;;;17.53;8.20;;;;;;;2.35;100.00;96980.00;10372523;28;20243;-74
2022/11/05 19:43:06;;;;;;;14.43;6.97;;;;;;;2.36;100.00;96980.81;10372820;28;20225;-74
2022/11/05 19:48:07;;;;;;;19.53;7.37;;;;;;;2.35;100.00;96992.09;10372059;28;20197;-75
2022/11/05 19:53:08;;;;;;;18.13;6.67;;;;;;;2.31;100.00;96978.53;10372238;28;20185;-74
2022/11/05 19:58:09;;;;;;;9.20;5.13;;;;;;;2.34;100.00;96986.09;10371826;28;20642;-74
2022/11/05 20:03:11;;;;;;;9.97;5.00;;;;;;;2.25;100.00;96991.84;10371995;28;20225;-74
2022/11/05 20:08:11;;;;;;;11.13;6.00;;;;;;;2.19;100.00;96992.22;10354230;28;20282;-74
2022/11/05 20:13:11;;;;;;;9.60;4.27;;;;;;;2.26;100.00;96996.91;10371179;28;20235;-74
2022/11/05 20:18:12;;;;;;;10.47;3.83;;;;;;;2.27;100.00;97000.34;10371407;28;20288;-74
2022/11/05 20:23:13;;;;;;;7.13;4.50;;;;;;;2.26;100.00;96993.50;10370996;28;20221;-74
2022/11/05 20:28:13;;;;;;;11.30;4.47;;;;;;;2.17;100.00;97004.44;10370521;28;20645;-75
2022/11/05 20:33:14;;;;;;;14.40;5.27;;;;;;;2.08;100.00;97013.59;10371165;28;20189;-75
2022/11/05 20:38:14;;;;;;;8.70;5.13;;;;;;;2.08;100.00;97017.03;10369236;28;20237;-74
2022/11/05 20:43:15;;;;;;;11.63;4.90;;;;;;;2.11;100.00;97014.25;10370604;28;20221;-74
2022/11/05 20:48:15;;;;;;;11.30;4.63;;;;;;;1.97;100.00;97022.00;10370233;28;20649;-74
2022/11/05 20:53:16;;;;;;;6.20;3.23;;;;;;;2.05;100.00;97027.56;10370145;28;20553;-74
2022/11/05 20:58:16;;;;;;;6.77;4.77;;;;;;;2.02;100.00;97022.56;10369530;28;20287;-74
2022/11/05 21:03:17;;;;;;;10.00;4.80;;;;;;;1.99;100.00;97025.34;10370037;28;20229;-75
2022/11/05 21:08:18;;;;;;;12.80;4.17;;;;;;;1.92;100.00;97016.31;10369176;28;20564;-74
2022/11/05 21:13:19;;;;;;;7.83;5.00;;;;;;;1.84;100.00;97005.59;10369752;28;20272;-74
2022/11/05 21:18:21;;;;;;;10.63;4.73;;;;;;;1.83;100.00;97006.56;10368750;28;20749;-75
2022/11/05 21:23:22;;;;;;;9.97;4.97;;;;;;;1.72;100.00;97010.63;10368760;28;20231;-74
2022/11/05 21:28:22;;;;;;;11.50;5.53;;;;;;;1.68;100.00;97003.97;10368554;28;20540;-74
2022/11/05 21:33:23;;;;;;;15.13;5.20;;;;;;;1.73;100.00;97007.13;10368755;28;20188;-74
2022/11/05 21:38:23;;;;;;;11.43;4.80;;;;;;;1.75;100.00;97014.78;10368072;28;20229;-74
2022/11/05 21:43:24;;;;;;;11.03;4.70;;;;;;;1.71;100.00;97023.63;10368260;28;20217;-74
2022/11/05 21:48:24;;;;;;;12.63;4.33;;;;;;;1.75;100.00;97031.09;10367376;28;20363;-74
2022/11/05 22:04:02;;;;;;;10.07;4.43;;;;;;;1.75;100.00;97025.09;10367390;28;20225;-75
2022/11/05 22:09:03;;;;;;;6.23;3.67;;;;;;;1.72;100.00;97020.94;10367132;28;20189;-74
2022/11/05 22:14:03;;;;;;;11.60;4.20;;;;;;;1.75;100.00;97018.19;10367652;28;20276;-74
2022/11/05 22:19:04;;;;;;;11.40;4.30;;;;;;;1.72;100.00;97020.94;10366682;28;20193;-74
2022/11/05 22:24:04;;;;;;;6.13;2.87;;;;;;;1.66;100.00;97016.16;10367321;28;20260;-74
2022/11/05 22:29:05;;;;;;;9.17;3.40;;;;;;;1.66;100.00;97013.56;10367059;28;20544;-75
2022/11/05 22:34:05;;;;;;;5.67;2.83;;;;;;;1.71;100.00;97006.38;10366760;28;20185;-74
2022/11/05 22:39:06;;;;;;;12.33;4.20;;;;;;;1.72;100.00;96999.47;10366957;28;20233;-75
2022/11/05 22:44:06;;;;;;;11.07;3.50;;;;;;;1.66;100.00;97005.84;10366732;28;20220;-74
2022/11/05 22:49:08;;;;;;;8.93;3.90;;;;;;;1.73;100.00;97009.69;10364016;28;20225;-75
2022/11/05 22:54:09;;;;;;;7.70;3.60;;;;;;;1.64;100.00;97004.25;10342709;28;20193;-75
2022/11/05 22:59:12;;;;;;;7.07;3.60;;;;;;;1.68;100.00;97005.72;10369657;28;20193;-75
2022/11/05 23:04:13;;;;;;;3.73;2.93;;;;;;;1.67;100.00;97002.34;10374179;28;20224;-74
2022/11/05 23:14:35;;;;;;;11.23;4.27;;;;;;;1.59;100.00;96996.78;10373789;28;20280;-75
2022/11/05 23:24:54;;;;;;;8.20;3.63;;;;;;;1.54;100.00;97009.16;10373289;28;20595;-74
2022/11/05 23:29:59;;;;;;;6.10;3.57;;;;;;;1.51;100.00;97017.91;10373789;28;20193;-74
2022/11/05 23:34:59;;;;;;;5.40;3.30;;;;;;;1.54;100.00;97022.88;10372877;28;20657;-75
2022/11/05 23:39:59;;;;;;;7.80;4.00;;;;;;;1.59;100.00;97009.69;10372983;28;20238;-74
2022/11/05 23:50:19;;;;;;;17.77;4.17;;;;;;;1.56;100.00;97005.56;10373017;28;20189;-75
2022/11/05 23:55:20;;;;;;;8.67;2.80;;;;;;;1.60;100.00;97014.78;10372210;28;20674;-74
